createdAt,value
2019-05-07T00:01:29.815Z,99.90
2019-05-07T00:03:58.832Z,99.90
2019-05-07T00:06:24.835Z,99.90
2019-05-07T00:08:52.254Z,99.90
2019-05-07T00:11:22.369Z,99.90
2019-05-07T00:13:52.260Z,99.90
2019-05-07T00:16:18.446Z,99.90
2019-05-07T00:18:44.458Z,99.90
2019-05-07T00:21:12.469Z,99.90
2019-05-07T00:23:39.590Z,99.90
2019-05-07T00:26:05.655Z,99.90
2019-05-07T00:28:32.480Z,99.90
2019-05-07T00:30:59.754Z,99.90
2019-05-07T00:33:25.755Z,99.90
2019-05-07T00:36:12.419Z,99.90
2019-05-07T00:38:42.717Z,99.90
2019-05-07T00:41:18.492Z,99.90
2019-05-07T00:43:46.036Z,99.90
2019-05-07T00:46:14.003Z,99.90
2019-05-07T00:48:43.912Z,99.90
2019-05-07T00:51:24.919Z,99.90
2019-05-07T00:53:52.063Z,99.90
2019-05-07T00:56:18.186Z,99.90
2019-05-07T00:58:45.756Z,99.90
2019-05-07T01:01:14.695Z,99.90
2019-05-07T01:03:42.498Z,99.90
2019-05-07T01:06:09.751Z,99.90
2019-05-07T01:08:36.920Z,99.90
2019-05-07T01:11:05.178Z,99.90
2019-05-07T01:13:32.586Z,99.90
2019-05-07T01:15:59.948Z,99.90
2019-05-07T01:18:26.072Z,99.90
2019-05-07T01:20:53.277Z,99.90
2019-05-07T01:23:22.935Z,99.90
2019-05-07T01:25:48.720Z,99.90
2019-05-07T01:28:16.825Z,99.90
2019-05-07T01:30:48.100Z,99.90
2019-05-07T01:33:18.927Z,99.90
2019-05-07T01:36:03.580Z,99.90
2019-05-07T01:38:33.175Z,99.90
2019-05-07T01:40:59.369Z,99.90
2019-05-07T01:43:26.371Z,99.90
2019-05-07T01:45:58.324Z,99.90
2019-05-07T01:48:26.536Z,99.90
2019-05-07T01:50:53.725Z,99.90
2019-05-07T01:53:19.801Z,99.90
2019-05-07T01:55:48.638Z,99.90
2019-05-07T01:58:15.671Z,99.90
2019-05-07T02:00:43.775Z,99.90
2019-05-07T02:03:18.100Z,99.90
2019-05-07T02:06:01.748Z,99.90
2019-05-07T02:08:46.614Z,99.90
2019-05-07T02:11:18.864Z,99.90
2019-05-07T02:13:44.883Z,99.90
2019-05-07T02:16:12.910Z,99.90
2019-05-07T02:18:38.977Z,99.90
2019-05-07T02:21:05.017Z,99.90
2019-05-07T02:23:32.874Z,99.90
2019-05-07T02:25:58.947Z,99.90
2019-05-07T02:28:25.984Z,99.90
2019-05-07T02:30:53.642Z,99.90
2019-05-07T02:33:22.961Z,99.90
2019-05-07T02:35:49.559Z,99.90
2019-05-07T02:38:29.832Z,99.90
2019-05-07T02:41:02.690Z,99.90
2019-05-07T02:43:28.491Z,99.90
2019-05-07T02:46:22.506Z,99.90
2019-05-07T02:48:46.388Z,99.90
2019-05-07T02:51:14.313Z,99.90
2019-05-07T02:53:48.069Z,99.90
2019-05-07T02:56:15.110Z,99.90
2019-05-07T02:58:43.402Z,99.90
2019-05-07T03:01:13.921Z,99.90
2019-05-07T03:03:39.020Z,99.90
2019-05-07T03:06:05.349Z,99.90
2019-05-07T03:08:33.142Z,99.90
2019-05-07T03:11:03.031Z,99.90
2019-05-07T03:13:28.972Z,99.90
2019-05-07T03:15:55.307Z,99.90
2019-05-07T03:18:23.355Z,99.90
2019-05-07T03:20:56.136Z,99.90
2019-05-07T03:23:26.799Z,99.90
2019-05-07T03:25:54.735Z,99.90
2019-05-07T03:28:23.666Z,99.90
2019-05-07T03:30:57.119Z,99.90
2019-05-07T03:33:30.798Z,99.90
2019-05-07T03:36:06.941Z,99.90
2019-05-07T03:38:37.260Z,99.90
2019-05-07T03:41:05.336Z,99.90
2019-05-07T03:43:33.643Z,99.90
2019-05-07T03:46:08.362Z,99.90
2019-05-07T03:48:37.406Z,99.90
2019-05-07T03:51:04.453Z,99.90
2019-05-07T03:53:33.538Z,99.90
2019-05-07T03:55:59.437Z,99.90
2019-05-07T03:58:26.441Z,99.90
2019-05-07T04:00:54.743Z,99.90
2019-05-07T04:03:24.216Z,99.90
2019-05-07T04:05:53.145Z,99.90
2019-05-07T04:08:18.571Z,99.90
2019-05-07T04:10:44.704Z,99.90
2019-05-07T04:13:13.925Z,99.90
2019-05-07T04:15:43.508Z,99.90
2019-05-07T04:18:09.033Z,99.90
2019-05-07T04:20:36.052Z,99.90
2019-05-07T04:23:04.266Z,99.90
2019-05-07T04:25:48.796Z,99.90
2019-05-07T04:28:33.502Z,99.90
2019-05-07T04:31:02.820Z,99.90
2019-05-07T04:33:33.376Z,99.90
2019-05-07T04:36:04.462Z,99.90
2019-05-07T04:38:33.140Z,99.90
2019-05-07T04:40:58.368Z,99.90
2019-05-07T04:43:27.432Z,99.90
2019-05-07T04:45:53.883Z,99.90
2019-05-07T04:48:23.039Z,99.90
2019-05-07T04:50:53.920Z,99.90
2019-05-07T04:53:23.358Z,99.90
2019-05-07T04:55:49.751Z,99.90
2019-05-07T04:58:17.270Z,99.90
2019-05-07T05:00:46.283Z,99.90
2019-05-07T05:03:19.102Z,99.90
2019-05-07T05:05:49.404Z,99.90
2019-05-07T05:08:15.487Z,99.90
2019-05-07T05:10:43.254Z,99.90
2019-05-07T05:13:12.647Z,99.90
2019-05-07T05:15:37.648Z,99.90
2019-05-07T05:18:04.938Z,99.90
2019-05-07T05:20:44.485Z,99.90
2019-05-07T05:23:13.654Z,99.90
2019-05-07T05:25:43.263Z,99.90
2019-05-07T05:28:12.380Z,99.90
2019-05-07T05:30:42.881Z,99.90
2019-05-07T05:33:12.578Z,99.90
2019-05-07T05:35:43.156Z,99.90
2019-05-07T05:38:15.981Z,99.90
2019-05-07T05:40:42.844Z,99.90
2019-05-07T05:43:29.141Z,99.90
2019-05-07T05:46:02.576Z,99.90
2019-05-07T05:48:33.432Z,99.90
2019-05-07T05:51:22.589Z,99.90
2019-05-07T05:53:58.653Z,99.90
2019-05-07T05:56:32.570Z,99.90
2019-05-07T05:59:23.770Z,99.90
2019-05-07T06:02:03.376Z,99.90
2019-05-07T06:04:33.943Z,99.90
2019-05-07T06:07:18.828Z,99.90
2019-05-07T06:09:49.275Z,99.90
2019-05-07T06:12:22.001Z,99.90
2019-05-07T06:14:54.030Z,99.90
2019-05-07T06:17:24.205Z,99.90
2019-05-07T06:20:12.177Z,99.90
2019-05-07T06:22:57.926Z,99.90
2019-05-07T06:25:25.457Z,99.90
2019-05-07T06:27:53.343Z,99.90
2019-05-07T06:30:22.719Z,99.90
2019-05-07T06:32:57.395Z,99.90
2019-05-07T06:35:24.483Z,99.90
2019-05-07T06:37:52.681Z,99.90
2019-05-07T06:40:35.538Z,99.90
2019-05-07T06:43:13.544Z,99.90
2019-05-07T06:45:42.206Z,99.90
2019-05-07T06:48:12.643Z,99.90
2019-05-07T06:50:44.019Z,99.90
2019-05-07T06:53:12.346Z,99.90
2019-05-07T06:55:39.423Z,99.90
2019-05-07T06:58:07.161Z,99.90
2019-05-07T07:00:38.131Z,99.90
2019-05-07T07:03:18.722Z,99.90
2019-05-07T07:05:47.454Z,99.90
2019-05-07T07:08:26.191Z,99.90
2019-05-07T07:11:12.800Z,99.90
2019-05-07T07:13:42.501Z,99.90
2019-05-07T07:16:08.097Z,99.90
2019-05-07T07:18:48.413Z,99.90
2019-05-07T07:21:03.333Z,99.90
2019-05-07T07:23:32.767Z,99.90
2019-05-07T07:26:02.932Z,99.90
2019-05-07T07:28:28.904Z,99.90
2019-05-07T07:30:57.081Z,99.90
2019-05-07T07:33:27.135Z,99.90
2019-05-07T07:35:55.659Z,99.90
2019-05-07T07:38:34.689Z,99.90
2019-05-07T07:41:18.499Z,99.90
2019-05-07T07:43:46.075Z,99.90
2019-05-07T07:46:16.673Z,99.90
2019-05-07T07:48:46.251Z,99.90
2019-05-07T07:51:14.484Z,99.90
2019-05-07T07:53:46.648Z,99.90
2019-05-07T07:56:25.787Z,99.90
2019-05-07T07:59:04.603Z,99.90
2019-05-07T08:01:41.989Z,99.90
2019-05-07T08:04:12.095Z,99.90
2019-05-07T08:06:52.290Z,99.90
2019-05-07T08:09:18.651Z,99.90
2019-05-07T08:11:44.834Z,99.90
2019-05-07T08:14:16.739Z,99.90
2019-05-07T08:16:43.507Z,99.90
2019-05-07T08:19:21.750Z,99.90
2019-05-07T08:21:42.140Z,99.70
2019-05-07T08:24:09.434Z,99.90
2019-05-07T08:26:35.616Z,99.90
2019-05-07T08:29:03.009Z,99.90
2019-05-07T08:31:38.678Z,99.90
2019-05-07T08:34:14.068Z,99.90
2019-05-07T08:36:42.095Z,99.80
2019-05-07T08:39:09.633Z,99.60
2019-05-07T08:41:36.840Z,99.90
2019-05-07T08:44:14.579Z,99.90
2019-05-07T08:46:47.055Z,99.60
2019-05-07T08:49:17.744Z,99.20
2019-05-07T08:51:44.136Z,98.80
2019-05-07T08:54:13.167Z,99.60
2019-05-07T08:56:39.161Z,99.20
2019-05-07T08:59:07.617Z,99.40
2019-05-07T09:01:35.483Z,99.70
2019-05-07T09:04:04.803Z,99.40
2019-05-07T09:06:35.230Z,98.70
2019-05-07T09:09:05.760Z,98.20
2019-05-07T09:11:32.613Z,98.20
2019-05-07T09:14:01.850Z,97.60
2019-05-07T09:16:31.817Z,97.90
2019-05-07T09:18:58.332Z,97.20
2019-05-07T09:21:24.401Z,95.90
2019-05-07T09:23:52.663Z,95.90
2019-05-07T09:26:27.616Z,96.30
2019-05-07T09:28:55.922Z,97.00
2019-05-07T09:31:33.006Z,97.30
2019-05-07T09:34:02.529Z,97.10
2019-05-07T09:36:32.462Z,95.30
2019-05-07T09:39:12.364Z,94.60
2019-05-07T09:41:45.301Z,94.60
2019-05-07T09:44:18.628Z,94.70
2019-05-07T09:46:48.255Z,95.00
2019-05-07T09:49:15.289Z,94.60
2019-05-07T09:51:48.579Z,94.60
2019-05-07T09:54:20.648Z,93.80
2019-05-07T09:56:48.768Z,93.60
2019-05-07T09:59:21.842Z,92.70
2019-05-07T10:01:52.882Z,92.20
2019-05-07T10:04:22.402Z,91.90
2019-05-07T10:06:48.989Z,92.40
2019-05-07T10:09:24.649Z,93.40
2019-05-07T10:12:04.638Z,93.80
2019-05-07T10:14:37.451Z,93.40
2019-05-07T10:17:23.178Z,94.00
2019-05-07T10:19:49.598Z,93.10
2019-05-07T10:22:16.571Z,91.30
2019-05-07T10:24:43.015Z,91.20
2019-05-07T10:27:14.140Z,90.30
2019-05-07T10:29:42.619Z,90.20
2019-05-07T10:32:17.344Z,90.00
2019-05-07T10:34:44.500Z,90.80
2019-05-07T10:37:12.004Z,91.80
2019-05-07T10:39:39.802Z,91.90
2019-05-07T10:42:06.945Z,92.90
2019-05-07T10:44:39.687Z,93.00
2019-05-07T10:47:14.415Z,92.90
2019-05-07T10:49:42.413Z,92.40
2019-05-07T10:52:08.690Z,92.40
2019-05-07T10:54:37.183Z,90.20
2019-05-07T10:57:03.347Z,89.00
2019-05-07T10:59:38.575Z,89.50
2019-05-07T11:02:13.665Z,90.20
2019-05-07T11:04:45.759Z,89.00
2019-05-07T11:07:11.999Z,89.70
2019-05-07T11:09:41.934Z,89.10
2019-05-07T11:12:09.146Z,88.30
2019-05-07T11:14:36.503Z,87.10
2019-05-07T11:17:12.123Z,87.80
2019-05-07T11:19:41.703Z,87.50
2019-05-07T11:22:08.009Z,87.10
2019-05-07T11:24:36.102Z,87.20
2019-05-07T11:27:02.492Z,86.60
2019-05-07T11:29:32.583Z,86.60
2019-05-07T11:32:04.425Z,85.00
2019-05-07T11:34:33.505Z,85.70
2019-05-07T11:37:07.237Z,85.70
2019-05-07T11:39:37.511Z,85.80
2019-05-07T11:42:08.957Z,85.80
2019-05-07T11:44:42.483Z,86.60
2019-05-07T11:47:12.320Z,87.10
2019-05-07T11:50:03.177Z,87.40
2019-05-07T11:52:42.569Z,88.40
2019-05-07T11:55:11.936Z,88.80
2019-05-07T11:57:37.842Z,89.40
2019-05-07T12:00:27.961Z,90.00
2019-05-07T12:02:55.146Z,90.10
2019-05-07T12:05:22.765Z,90.20
2019-05-07T12:07:51.400Z,89.70
2019-05-07T12:10:17.417Z,88.80
2019-05-07T12:12:46.647Z,89.40
2019-05-07T12:15:14.123Z,88.60
2019-05-07T12:17:40.233Z,89.20
2019-05-07T12:20:13.756Z,89.20
2019-05-07T12:22:49.627Z,89.30
2019-05-07T12:25:20.024Z,88.30
2019-05-07T12:27:55.457Z,88.80
2019-05-07T12:30:38.770Z,88.40
2019-05-07T12:33:24.198Z,86.80
2019-05-07T12:35:52.470Z,85.80
2019-05-07T12:38:22.008Z,84.70
2019-05-07T12:40:52.248Z,84.40
2019-05-07T12:43:18.138Z,84.10
2019-05-07T12:45:44.224Z,84.70
2019-05-07T12:48:12.137Z,85.00
2019-05-07T12:50:55.350Z,84.20
2019-05-07T12:53:25.286Z,84.50
2019-05-07T12:55:54.294Z,85.20
2019-05-07T12:58:22.380Z,82.50
2019-05-07T13:00:53.509Z,81.00
2019-05-07T13:03:21.950Z,80.20
2019-05-07T13:05:53.388Z,79.70
2019-05-07T13:08:19.924Z,79.30
2019-05-07T13:10:49.166Z,79.30
2019-05-07T13:13:16.341Z,79.70
2019-05-07T13:15:51.798Z,79.70
2019-05-07T13:18:23.874Z,78.30
2019-05-07T13:20:53.133Z,79.00
2019-05-07T13:23:22.518Z,78.20
2019-05-07T13:26:02.558Z,74.90
2019-05-07T13:28:28.893Z,76.40
2019-05-07T13:30:56.933Z,74.20
2019-05-07T13:33:23.572Z,74.40
2019-05-07T13:35:52.214Z,75.70
2019-05-07T13:38:25.689Z,76.50
2019-05-07T13:41:02.247Z,76.90
2019-05-07T13:43:39.996Z,77.40
2019-05-07T13:46:08.003Z,76.10
2019-05-07T13:48:45.475Z,75.80
2019-05-07T13:51:12.305Z,76.00
2019-05-07T13:53:38.587Z,76.10
2019-05-07T13:56:07.443Z,76.60
2019-05-07T13:58:35.411Z,77.10
2019-05-07T14:01:04.880Z,77.10
2019-05-07T14:03:41.792Z,77.90
2019-05-07T14:06:07.839Z,78.00
2019-05-07T14:08:38.979Z,77.30
2019-05-07T14:11:06.240Z,77.10
2019-05-07T14:13:33.276Z,77.00
2019-05-07T14:16:12.045Z,77.50
2019-05-07T14:18:41.736Z,77.80
2019-05-07T14:21:08.003Z,77.40
2019-05-07T14:23:38.133Z,75.40
2019-05-07T14:26:04.399Z,74.80
2019-05-07T14:28:32.720Z,72.80
2019-05-07T14:30:59.200Z,72.10
2019-05-07T14:33:42.265Z,72.80
2019-05-07T14:36:25.678Z,71.70
2019-05-07T14:38:53.832Z,65.60
2019-05-07T14:41:20.113Z,67.20
2019-05-07T14:43:52.257Z,68.30
2019-05-07T14:46:19.513Z,69.10
2019-05-07T14:48:45.784Z,70.60
2019-05-07T14:51:21.924Z,70.00
2019-05-07T14:53:48.059Z,68.90
2019-05-07T14:56:18.846Z,70.80
2019-05-07T14:58:51.715Z,71.00
2019-05-07T15:01:18.100Z,69.30
2019-05-07T15:03:44.284Z,68.70
2019-05-07T15:06:12.475Z,68.00
2019-05-07T15:08:40.456Z,66.70
2019-05-07T15:11:11.231Z,67.80
2019-05-07T15:13:39.619Z,67.80
2019-05-07T15:16:07.056Z,68.00
2019-05-07T15:18:43.257Z,65.80
2019-05-07T15:21:12.369Z,65.60
2019-05-07T15:23:42.720Z,67.00
2019-05-07T15:26:09.208Z,66.40
2019-05-07T15:28:38.307Z,66.30
2019-05-07T15:31:09.031Z,66.90
2019-05-07T15:33:35.092Z,67.00
2019-05-07T15:36:02.884Z,67.70
2019-05-07T15:38:32.412Z,67.80
2019-05-07T15:41:04.258Z,66.80
2019-05-07T15:43:32.312Z,67.80
2019-05-07T15:45:59.036Z,68.00
2019-05-07T15:48:25.076Z,67.70
2019-05-07T15:50:52.195Z,66.80
2019-05-07T15:53:26.063Z,64.60
2019-05-07T15:55:53.279Z,63.80
2019-05-07T15:58:19.427Z,65.00
2019-05-07T16:00:45.543Z,66.50
2019-05-07T16:03:24.433Z,67.10
2019-05-07T16:05:54.864Z,67.20
2019-05-07T16:08:25.136Z,67.00
2019-05-07T16:10:53.231Z,67.80
2019-05-07T16:13:24.220Z,68.40
2019-05-07T16:15:52.912Z,68.00
2019-05-07T16:18:32.817Z,65.70
2019-05-07T16:21:07.957Z,65.40
2019-05-07T16:23:41.876Z,67.00
2019-05-07T16:26:09.080Z,66.90
2019-05-07T16:28:41.790Z,67.10
2019-05-07T16:31:07.971Z,66.20
2019-05-07T16:33:38.082Z,64.50
2019-05-07T16:36:06.288Z,64.60
2019-05-07T16:38:42.547Z,63.70
2019-05-07T16:41:13.356Z,63.70
2019-05-07T16:43:45.552Z,64.10
2019-05-07T16:46:13.854Z,63.20
2019-05-07T16:48:55.341Z,63.00
2019-05-07T16:51:22.551Z,63.80
2019-05-07T16:53:52.426Z,64.00
2019-05-07T16:56:22.570Z,61.40
2019-05-07T16:59:07.456Z,60.80
2019-05-07T17:01:34.885Z,60.80
2019-05-07T17:04:02.840Z,61.20
2019-05-07T17:06:29.032Z,60.50
2019-05-07T17:09:02.442Z,60.00
2019-05-07T17:11:32.531Z,60.10
2019-05-07T17:13:59.662Z,60.30
2019-05-07T17:16:26.823Z,59.90
2019-05-07T17:18:52.962Z,60.00
2019-05-07T17:21:21.627Z,59.60
2019-05-07T17:23:52.014Z,59.00
2019-05-07T17:26:19.180Z,58.40
2019-05-07T17:28:48.383Z,58.80
2019-05-07T17:31:22.730Z,58.30
2019-05-07T17:33:55.298Z,58.00
2019-05-07T17:36:29.088Z,58.90
2019-05-07T17:38:57.143Z,58.90
2019-05-07T17:41:28.169Z,59.30
2019-05-07T17:43:55.304Z,59.40
2019-05-07T17:46:21.784Z,59.90
2019-05-07T17:48:48.904Z,60.00
2019-05-07T17:51:17.920Z,59.20
2019-05-07T17:53:56.711Z,58.00
2019-05-07T17:56:22.405Z,59.20
2019-05-07T17:58:48.534Z,59.10
2019-05-07T18:01:23.558Z,59.60
2019-05-07T18:03:52.958Z,59.90
2019-05-07T18:06:19.231Z,59.90
2019-05-07T18:08:45.380Z,59.40
2019-05-07T18:11:20.871Z,62.50
2019-05-07T18:13:42.290Z,66.40
2019-05-07T18:16:16.015Z,69.30
2019-05-07T18:18:45.929Z,71.50
2019-05-07T18:21:14.379Z,72.90
2019-05-07T18:23:40.635Z,73.10
2019-05-07T18:26:07.674Z,74.30
2019-05-07T18:28:43.728Z,74.80
2019-05-07T18:31:12.584Z,76.10
2019-05-07T18:33:46.245Z,77.30
2019-05-07T18:36:13.428Z,78.20
2019-05-07T18:38:45.320Z,79.00
2019-05-07T18:41:16.539Z,80.60
2019-05-07T18:43:45.739Z,81.70
2019-05-07T18:46:13.634Z,83.70
2019-05-07T18:48:42.838Z,85.40
2019-05-07T18:51:12.299Z,86.80
2019-05-07T18:53:44.711Z,88.30
2019-05-07T18:56:15.512Z,89.30
2019-05-07T18:58:42.661Z,90.00
2019-05-07T19:01:13.355Z,90.40
2019-05-07T19:03:41.956Z,90.90
2019-05-07T19:06:13.406Z,91.10
2019-05-07T19:08:42.250Z,91.40
2019-05-07T19:11:12.334Z,91.80
2019-05-07T19:13:41.785Z,91.90
2019-05-07T19:16:08.738Z,92.20
2019-05-07T19:18:38.960Z,92.20
2019-05-07T19:21:07.859Z,92.40
2019-05-07T19:23:34.905Z,92.60
2019-05-07T19:26:02.461Z,92.80
2019-05-07T19:28:32.910Z,93.00
2019-05-07T19:30:59.426Z,93.00
2019-05-07T19:33:27.665Z,92.90
2019-05-07T19:35:53.717Z,93.20
2019-05-07T19:38:25.891Z,93.20
2019-05-07T19:40:53.954Z,93.30
2019-05-07T19:43:21.208Z,93.70
2019-05-07T19:45:47.264Z,94.10
2019-05-07T19:48:15.438Z,94.40
2019-05-07T19:50:44.401Z,94.70
2019-05-07T19:53:12.576Z,94.80
2019-05-07T19:55:58.812Z,95.00
2019-05-07T19:58:27.561Z,95.10
2019-05-07T20:00:58.952Z,95.20
2019-05-07T20:03:25.824Z,95.20
2019-05-07T20:05:52.616Z,95.20
2019-05-07T20:08:20.909Z,95.10
2019-05-07T20:10:52.029Z,95.30
2019-05-07T20:13:18.322Z,95.00
2019-05-07T20:15:46.317Z,95.10
2019-05-07T20:18:12.546Z,95.20
2019-05-07T20:20:42.712Z,95.30
2019-05-07T20:23:12.049Z,95.40
2019-05-07T20:25:41.842Z,95.50
2019-05-07T20:28:21.823Z,95.80
2019-05-07T20:31:00.388Z,96.10
2019-05-07T20:33:26.687Z,96.10
2019-05-07T20:35:54.854Z,96.20
2019-05-07T20:38:22.469Z,96.50
2019-05-07T20:40:52.019Z,96.70
2019-05-07T20:43:19.897Z,96.70
2019-05-07T20:45:52.267Z,96.80
2019-05-07T20:48:22.627Z,96.90
2019-05-07T20:50:48.937Z,97.20
2019-05-07T20:53:15.996Z,97.50
2019-05-07T20:55:48.337Z,97.70
2019-05-07T20:58:15.416Z,98.00
2019-05-07T21:00:47.534Z,98.30
2019-05-07T21:03:25.280Z,98.40
2019-05-07T21:05:53.318Z,98.70
2019-05-07T21:08:22.775Z,98.70
2019-05-07T21:10:50.270Z,98.90
2019-05-07T21:13:30.169Z,99.00
2019-05-07T21:15:48.284Z,99.30
2019-05-07T21:18:26.510Z,99.50
2019-05-07T21:20:53.675Z,99.50
2019-05-07T21:23:33.342Z,99.70
2019-05-07T21:26:03.395Z,99.70
2019-05-07T21:28:29.776Z,99.80
2019-05-07T21:31:02.771Z,99.90
2019-05-07T21:33:29.036Z,99.90
2019-05-07T21:35:57.087Z,99.90
2019-05-07T21:38:25.302Z,99.90
2019-05-07T21:40:51.356Z,99.90
2019-05-07T21:43:22.152Z,99.90
2019-05-07T21:45:52.969Z,99.90
2019-05-07T21:48:28.134Z,99.90
2019-05-07T21:51:03.652Z,99.90
2019-05-07T21:53:33.637Z,99.90
2019-05-07T21:56:05.287Z,99.90
2019-05-07T21:58:32.912Z,99.90
2019-05-07T22:01:08.741Z,99.90
2019-05-07T22:03:36.107Z,99.90
2019-05-07T22:06:02.687Z,99.90
2019-05-07T22:08:30.017Z,99.90
2019-05-07T22:11:04.658Z,99.90
2019-05-07T22:13:33.121Z,99.90
2019-05-07T22:16:02.564Z,99.90
2019-05-07T22:18:31.993Z,99.90
2019-05-07T22:20:58.826Z,99.90
2019-05-07T22:23:25.915Z,99.90
2019-05-07T22:25:58.815Z,99.90
2019-05-07T22:28:24.912Z,99.90
2019-05-07T22:31:14.286Z,99.90
2019-05-07T22:33:43.862Z,99.90
2019-05-07T22:36:16.907Z,99.90
2019-05-07T22:38:44.337Z,99.90
2019-05-07T22:41:12.714Z,99.90
2019-05-07T22:43:42.384Z,99.90
2019-05-07T22:46:09.353Z,99.90
2019-05-07T22:48:37.449Z,99.90
2019-05-07T22:51:05.482Z,99.90
2019-05-07T22:53:32.769Z,99.90
2019-05-07T22:56:03.192Z,99.90
2019-05-07T22:58:35.654Z,99.90
2019-05-07T23:01:03.644Z,99.90
2019-05-07T23:03:42.863Z,99.90
2019-05-07T23:06:12.113Z,99.90
2019-05-07T23:08:38.959Z,99.90
2019-05-07T23:11:05.961Z,99.90
2019-05-07T23:13:33.035Z,99.90
2019-05-07T23:16:02.660Z,99.90
2019-05-07T23:18:31.893Z,99.90
2019-05-07T23:20:59.735Z,99.90
2019-05-07T23:23:25.816Z,99.90
2019-05-07T23:25:52.410Z,99.90
2019-05-07T23:28:18.520Z,99.90
2019-05-07T23:30:44.607Z,99.90
2019-05-07T23:33:13.761Z,99.90
2019-05-07T23:35:42.205Z,99.90
2019-05-07T23:38:11.761Z,99.90
2019-05-07T23:40:52.462Z,99.90
2019-05-07T23:43:19.229Z,99.90
2019-05-07T23:45:45.598Z,99.90
2019-05-07T23:48:12.680Z,99.90
2019-05-07T23:50:41.836Z,99.90
2019-05-07T23:53:08.140Z,99.90
2019-05-07T23:55:35.251Z,99.90
2019-05-07T23:58:13.890Z,99.90
